createdAt,value
2023-05-10T00:01:27.682Z,10.60
2023-05-10T00:03:54.715Z,10.58
2023-05-10T00:06:21.487Z,10.57
2023-05-10T00:08:48.125Z,10.55
2023-05-10T00:11:14.800Z,10.51
2023-05-10T00:13:41.829Z,10.48
2023-05-10T00:16:11.205Z,10.44
2023-05-10T00:18:38.987Z,10.41
2023-05-10T00:21:06.184Z,10.39
2023-05-10T00:23:33.161Z,10.37
2023-05-10T00:26:00.051Z,10.35
2023-05-10T00:28:32.096Z,10.36
2023-05-10T00:30:58.837Z,10.30
2023-05-10T00:33:25.536Z,10.27
2023-05-10T00:35:52.265Z,10.24
2023-05-10T00:38:19.042Z,10.23
2023-05-10T00:40:45.767Z,10.22
2023-05-10T00:43:12.439Z,10.19
2023-05-10T00:45:42.380Z,10.16
2023-05-10T00:48:09.608Z,10.16
2023-05-10T00:50:36.564Z,10.14
2023-05-10T00:53:03.855Z,10.14
2023-05-10T00:55:31.438Z,10.14
2023-05-10T00:57:58.236Z,10.13
2023-05-10T01:00:25.220Z,10.11
2023-05-10T01:02:52.114Z,10.12
2023-05-10T01:05:19.134Z,10.10
2023-05-10T01:07:45.882Z,10.07
2023-05-10T01:10:12.735Z,10.03
2023-05-10T01:12:43.749Z,9.99
2023-05-10T01:15:12.497Z,9.95
2023-05-10T01:17:41.479Z,9.90
2023-05-10T01:20:10.431Z,9.87
2023-05-10T01:22:55.724Z,9.83
2023-05-10T01:25:41.401Z,9.81
2023-05-10T01:28:26.734Z,9.82
2023-05-10T01:31:26.965Z,9.79
2023-05-10T01:34:00.220Z,9.73
2023-05-10T01:36:30.845Z,9.70
2023-05-10T01:39:27.219Z,9.64
2023-05-10T01:42:04.547Z,9.58
2023-05-10T01:44:57.202Z,9.51
2023-05-10T01:47:44.083Z,9.49
2023-05-10T01:50:18.751Z,9.52
2023-05-10T01:52:52.702Z,9.51
2023-05-10T01:55:21.841Z,9.49
2023-05-10T01:57:54.033Z,9.47
2023-05-10T02:00:21.328Z,9.45
2023-05-10T02:02:50.767Z,9.43
2023-05-10T02:05:19.001Z,9.43
2023-05-10T02:07:46.576Z,9.38
2023-05-10T02:10:14.647Z,9.37
2023-05-10T02:12:47.234Z,9.34
2023-05-10T02:15:19.020Z,9.30
2023-05-10T02:17:47.854Z,9.29
2023-05-10T02:20:17.265Z,9.26
2023-05-10T02:22:46.085Z,9.22
2023-05-10T02:25:14.971Z,9.17
2023-05-10T02:27:43.618Z,9.10
2023-05-10T02:30:11.969Z,9.04
2023-05-10T02:32:39.615Z,8.96
2023-05-10T02:35:07.253Z,8.93
2023-05-10T02:37:35.570Z,8.93
2023-05-10T02:40:04.488Z,8.89
2023-05-10T02:42:34.108Z,8.86
2023-05-10T02:45:02.726Z,8.88
2023-05-10T02:47:32.517Z,8.84
2023-05-10T02:49:59.449Z,8.81
2023-05-10T02:52:30.326Z,8.81
2023-05-10T02:54:59.892Z,8.71
2023-05-10T02:57:34.881Z,8.66
2023-05-10T03:00:03.836Z,8.64
2023-05-10T03:02:32.062Z,8.64
2023-05-10T03:04:58.933Z,8.59
2023-05-10T03:07:25.733Z,8.53
2023-05-10T03:09:53.116Z,8.49
2023-05-10T03:12:48.171Z,8.48
2023-05-10T03:15:54.921Z,8.51
2023-05-10T03:18:34.866Z,8.54
2023-05-10T03:21:07.176Z,8.57
2023-05-10T03:23:40.381Z,8.60
2023-05-10T03:26:08.458Z,8.61
2023-05-10T03:28:38.510Z,8.61
2023-05-10T03:31:07.222Z,8.62
2023-05-10T03:33:33.986Z,8.62
2023-05-10T03:36:01.004Z,8.67
2023-05-10T03:38:30.276Z,8.75
2023-05-10T03:40:57.224Z,8.83
2023-05-10T03:43:23.887Z,8.89
2023-05-10T03:45:50.633Z,8.96
2023-05-10T03:48:17.338Z,9.04
2023-05-10T03:50:44.000Z,9.11
2023-05-10T03:53:10.701Z,9.14
2023-05-10T03:55:37.578Z,9.18
2023-05-10T03:58:04.304Z,9.24
2023-05-10T04:00:31.266Z,9.32
2023-05-10T04:02:58.048Z,9.40
2023-05-10T04:05:24.745Z,9.45
2023-05-10T04:07:52.180Z,9.51
2023-05-10T04:10:19.158Z,9.56
2023-05-10T04:12:46.083Z,9.61
2023-05-10T04:15:12.813Z,9.68
2023-05-10T04:17:39.486Z,9.74
2023-05-10T04:20:07.552Z,9.80
2023-05-10T04:22:34.193Z,9.85
2023-05-10T04:25:00.927Z,9.93
2023-05-10T04:27:28.152Z,10.00
2023-05-10T04:29:54.856Z,10.07
2023-05-10T04:32:21.639Z,10.13
2023-05-10T04:34:48.410Z,10.19
2023-05-10T04:37:15.166Z,10.26
2023-05-10T04:39:42.522Z,10.30
2023-05-10T04:42:09.535Z,10.38
2023-05-10T04:44:37.161Z,10.46
2023-05-10T04:47:04.216Z,10.51
2023-05-10T04:49:31.122Z,10.57
2023-05-10T04:51:57.845Z,10.64
2023-05-10T04:54:24.766Z,10.70
2023-05-10T04:56:51.538Z,10.78
2023-05-10T04:59:18.304Z,10.83
2023-05-10T05:01:45.022Z,10.91
2023-05-10T05:04:12.009Z,10.99
2023-05-10T05:06:38.794Z,11.05
2023-05-10T05:09:05.469Z,11.10
2023-05-10T05:11:32.104Z,11.18
2023-05-10T05:14:00.307Z,11.27
2023-05-10T05:16:27.790Z,11.34
2023-05-10T05:18:54.568Z,11.42
2023-05-10T05:21:21.573Z,11.48
2023-05-10T05:23:48.251Z,11.54
2023-05-10T05:26:16.038Z,11.59
2023-05-10T05:28:43.224Z,11.65
2023-05-10T05:31:10.303Z,11.73
2023-05-10T05:33:37.712Z,11.78
2023-05-10T05:36:07.397Z,11.86
2023-05-10T05:38:34.080Z,11.93
2023-05-10T05:41:00.857Z,12.00
2023-05-10T05:43:27.517Z,12.05
2023-05-10T05:45:55.048Z,12.10
2023-05-10T05:48:22.766Z,12.17
2023-05-10T05:50:49.496Z,12.24
2023-05-10T05:53:16.872Z,12.31
2023-05-10T05:55:57.406Z,12.40
2023-05-10T05:58:24.248Z,12.49
2023-05-10T06:00:51.380Z,12.56
2023-05-10T06:03:18.284Z,12.64
2023-05-10T06:05:45.246Z,12.68
2023-05-10T06:08:12.083Z,12.74
2023-05-10T06:10:39.294Z,12.80
2023-05-10T06:13:06.220Z,12.84
2023-05-10T06:15:33.781Z,12.89
2023-05-10T06:18:00.599Z,12.94
2023-05-10T06:20:27.534Z,13.00
2023-05-10T06:22:54.334Z,13.07
2023-05-10T06:25:21.111Z,13.13
2023-05-10T06:27:51.117Z,13.17
2023-05-10T06:30:19.690Z,13.21
2023-05-10T06:32:46.985Z,13.27
2023-05-10T06:35:13.947Z,13.36
2023-05-10T06:37:40.828Z,13.44
2023-05-10T06:40:08.262Z,13.51
2023-05-10T06:42:34.942Z,13.60
2023-05-10T06:45:01.682Z,13.66
2023-05-10T06:47:28.411Z,13.74
2023-05-10T06:49:55.089Z,13.81
2023-05-10T06:52:21.910Z,13.88
2023-05-10T06:54:48.566Z,13.96
2023-05-10T06:57:27.550Z,14.01
2023-05-10T06:59:58.083Z,14.06
2023-05-10T07:02:24.771Z,14.15
2023-05-10T07:04:53.004Z,14.25
2023-05-10T07:07:20.113Z,14.38
2023-05-10T07:09:47.113Z,14.46
2023-05-10T07:12:15.387Z,14.56
2023-05-10T07:14:43.013Z,14.62
2023-05-10T07:17:09.934Z,14.73
2023-05-10T07:19:37.062Z,14.87
2023-05-10T07:22:04.171Z,15.19
2023-05-10T07:24:32.341Z,15.52
2023-05-10T07:26:59.073Z,15.74
2023-05-10T07:29:25.796Z,15.83
2023-05-10T07:31:52.556Z,15.87
2023-05-10T07:34:19.306Z,15.85
2023-05-10T07:36:46.031Z,15.86
2023-05-10T07:39:16.286Z,15.90
2023-05-10T07:41:47.952Z,15.96
2023-05-10T07:44:14.596Z,16.04
2023-05-10T07:46:41.595Z,16.15
2023-05-10T07:49:08.380Z,16.26
2023-05-10T07:51:35.027Z,16.39
2023-05-10T07:54:01.781Z,16.50
2023-05-10T07:56:30.902Z,16.58
2023-05-10T07:58:58.933Z,16.69
2023-05-10T08:01:26.524Z,16.78
2023-05-10T08:03:54.589Z,16.87
2023-05-10T08:06:22.005Z,16.93
2023-05-10T08:08:51.460Z,17.02
2023-05-10T08:11:19.078Z,17.09
2023-05-10T08:13:46.293Z,17.15
2023-05-10T08:16:13.083Z,17.20
2023-05-10T08:18:41.017Z,17.27
2023-05-10T08:21:08.030Z,17.31
2023-05-10T08:23:34.704Z,17.38
2023-05-10T08:26:01.608Z,17.47
2023-05-10T08:28:28.346Z,17.57
2023-05-10T08:30:55.249Z,17.63
2023-05-10T08:33:21.931Z,17.72
2023-05-10T08:35:48.751Z,17.78
2023-05-10T08:38:15.461Z,17.82
2023-05-10T08:40:43.770Z,17.88
2023-05-10T08:43:13.073Z,17.92
2023-05-10T08:45:41.807Z,17.97
2023-05-10T08:48:09.997Z,18.07
2023-05-10T08:50:41.497Z,18.17
2023-05-10T08:53:12.296Z,18.25
2023-05-10T08:55:41.180Z,18.30
2023-05-10T08:58:07.974Z,18.37
2023-05-10T09:00:35.295Z,18.42
2023-05-10T09:03:04.897Z,18.48
2023-05-10T09:05:31.915Z,18.54
2023-05-10T09:07:59.821Z,18.56
2023-05-10T09:10:28.421Z,18.56
2023-05-10T09:12:59.385Z,18.60
2023-05-10T09:15:27.048Z,18.62
2023-05-10T09:17:55.633Z,18.68
2023-05-10T09:20:22.406Z,18.78
2023-05-10T09:22:49.277Z,18.87
2023-05-10T09:25:17.755Z,18.96
2023-05-10T09:27:48.787Z,19.04
2023-05-10T09:30:24.790Z,19.09
2023-05-10T09:32:51.991Z,19.14
2023-05-10T09:35:22.343Z,19.22
2023-05-10T09:37:51.316Z,19.23
2023-05-10T09:40:23.307Z,19.28
2023-05-10T09:43:09.091Z,19.33
2023-05-10T09:45:38.965Z,19.40
2023-05-10T09:48:07.170Z,19.52
2023-05-10T09:50:35.323Z,19.59
2023-05-10T09:53:04.597Z,19.69
2023-05-10T09:55:40.395Z,19.78
2023-05-10T09:58:11.506Z,19.89
2023-05-10T10:00:41.176Z,20.00
2023-05-10T10:03:14.234Z,20.12
2023-05-10T10:05:44.311Z,20.20
2023-05-10T10:08:11.810Z,20.21
2023-05-10T10:10:41.344Z,20.29
2023-05-10T10:13:08.642Z,20.43
2023-05-10T10:15:36.011Z,20.54
2023-05-10T10:18:04.705Z,20.57
2023-05-10T10:20:31.518Z,20.58
2023-05-10T10:22:58.201Z,20.69
2023-05-10T10:25:26.597Z,20.76
2023-05-10T10:27:53.311Z,20.73
2023-05-10T10:30:26.132Z,20.77
2023-05-10T10:33:26.763Z,20.86
2023-05-10T10:35:55.593Z,20.93
2023-05-10T10:38:23.030Z,20.99
2023-05-10T10:41:02.653Z,21.09
2023-05-10T10:43:29.888Z,21.15
2023-05-10T10:46:17.072Z,21.23
2023-05-10T10:48:53.333Z,21.30
2023-05-10T10:51:19.986Z,21.33
2023-05-10T10:53:49.108Z,21.37
2023-05-10T10:56:16.620Z,21.42
2023-05-10T10:58:54.902Z,21.51
2023-05-10T11:01:21.832Z,21.53
2023-05-10T11:04:06.707Z,21.55
2023-05-10T11:06:35.314Z,21.54
2023-05-10T11:09:12.673Z,21.48
2023-05-10T11:12:09.147Z,21.46
2023-05-10T11:14:35.914Z,21.46
2023-05-10T11:17:03.019Z,21.44
2023-05-10T11:19:30.093Z,21.49
2023-05-10T11:22:05.928Z,21.53
2023-05-10T11:24:32.890Z,21.54
2023-05-10T11:26:59.542Z,21.51
2023-05-10T11:29:27.640Z,21.46
2023-05-10T11:31:57.609Z,21.47
2023-05-10T11:34:31.289Z,21.50
2023-05-10T11:36:58.957Z,21.55
2023-05-10T11:39:30.995Z,21.53
2023-05-10T11:41:58.856Z,21.50
2023-05-10T11:44:31.617Z,21.50
2023-05-10T11:47:02.119Z,21.49
2023-05-10T11:49:28.853Z,21.48
2023-05-10T11:52:05.396Z,21.55
2023-05-10T11:54:32.300Z,21.54
2023-05-10T11:56:58.997Z,21.45
2023-05-10T11:59:26.385Z,21.37
2023-05-10T12:01:53.093Z,21.36
2023-05-10T12:04:20.494Z,21.27
2023-05-10T12:06:47.723Z,21.21
2023-05-10T12:09:17.594Z,21.18
2023-05-10T12:11:44.724Z,21.17
2023-05-10T12:14:11.767Z,21.24
2023-05-10T12:16:38.577Z,21.36
2023-05-10T12:19:06.562Z,21.47
2023-05-10T12:21:34.463Z,21.58
2023-05-10T12:24:03.994Z,21.73
2023-05-10T12:26:31.144Z,21.83
2023-05-10T12:29:17.707Z,21.90
2023-05-10T12:31:59.299Z,21.89
2023-05-10T12:34:34.856Z,21.87
2023-05-10T12:37:02.630Z,21.90
2023-05-10T12:39:43.191Z,21.98
2023-05-10T12:42:10.666Z,22.12
2023-05-10T12:44:37.379Z,22.19
2023-05-10T12:47:04.070Z,22.27
2023-05-10T12:49:30.800Z,22.30
2023-05-10T12:51:57.455Z,22.31
2023-05-10T12:54:24.157Z,22.34
2023-05-10T12:56:50.824Z,22.40
2023-05-10T12:59:17.568Z,22.48
2023-05-10T13:01:44.340Z,22.47
2023-05-10T13:04:11.150Z,22.44
2023-05-10T13:06:37.867Z,22.46
2023-05-10T13:09:04.690Z,22.50
2023-05-10T13:11:31.497Z,22.53
2023-05-10T13:13:58.333Z,22.66
2023-05-10T13:16:25.005Z,22.79
2023-05-10T13:18:51.774Z,22.70
2023-05-10T13:21:18.511Z,22.59
2023-05-10T13:23:45.167Z,22.56
2023-05-10T13:26:11.797Z,22.52
2023-05-10T13:28:39.827Z,22.30
2023-05-10T13:31:06.621Z,22.29
2023-05-10T13:33:33.440Z,22.32
2023-05-10T13:36:00.110Z,22.35
2023-05-10T13:38:26.826Z,22.36
2023-05-10T13:40:54.013Z,22.39
2023-05-10T13:43:21.135Z,22.34
2023-05-10T13:45:48.041Z,22.26
2023-05-10T13:48:14.720Z,22.20
2023-05-10T13:50:41.403Z,22.13
2023-05-10T13:53:08.078Z,22.16
2023-05-10T13:55:34.815Z,22.19
2023-05-10T13:58:01.486Z,22.32
2023-05-10T14:00:28.420Z,22.33
2023-05-10T14:02:55.202Z,22.23
2023-05-10T14:05:25.440Z,22.25
2023-05-10T14:07:52.778Z,22.26
2023-05-10T14:10:19.493Z,22.17
2023-05-10T14:12:46.123Z,22.18
2023-05-10T14:15:12.814Z,22.27
2023-05-10T14:17:39.549Z,22.29
2023-05-10T14:20:07.151Z,22.29
2023-05-10T14:22:33.863Z,22.33
2023-05-10T14:25:01.669Z,22.42
2023-05-10T14:27:28.460Z,22.46
2023-05-10T14:29:55.150Z,22.39
2023-05-10T14:32:21.791Z,22.44
2023-05-10T14:34:48.449Z,22.43
2023-05-10T14:37:15.652Z,22.40
2023-05-10T14:39:43.471Z,22.26
2023-05-10T14:42:10.254Z,22.07
2023-05-10T14:44:36.899Z,21.91
2023-05-10T14:47:03.570Z,21.68
2023-05-10T14:49:30.296Z,21.44
2023-05-10T14:51:56.979Z,21.37
2023-05-10T14:54:23.667Z,21.33
2023-05-10T14:56:51.066Z,21.39
2023-05-10T14:59:17.854Z,21.49
2023-05-10T15:01:45.298Z,21.51
2023-05-10T15:04:13.991Z,21.46
2023-05-10T15:06:42.032Z,21.48
2023-05-10T15:09:08.792Z,21.50
2023-05-10T15:11:35.729Z,21.36
2023-05-10T15:14:02.984Z,21.22
2023-05-10T15:16:29.812Z,21.24
2023-05-10T15:18:56.705Z,21.22
2023-05-10T15:21:23.415Z,21.19
2023-05-10T15:23:50.063Z,21.24
2023-05-10T15:26:16.815Z,21.33
2023-05-10T15:28:43.956Z,21.36
2023-05-10T15:31:11.592Z,21.35
2023-05-10T15:33:39.315Z,21.31
2023-05-10T15:36:06.181Z,21.32
2023-05-10T15:38:32.885Z,21.32
2023-05-10T15:40:59.683Z,21.33
2023-05-10T15:43:26.387Z,21.46
2023-05-10T15:45:53.124Z,21.61
2023-05-10T15:48:19.763Z,21.73
2023-05-10T15:50:46.567Z,21.77
2023-05-10T15:53:13.353Z,21.77
2023-05-10T15:55:42.952Z,21.76
2023-05-10T15:58:09.622Z,21.75
2023-05-10T16:00:36.318Z,21.73
2023-05-10T16:03:03.172Z,21.84
2023-05-10T16:05:32.730Z,21.89
2023-05-10T16:08:00.427Z,21.81
2023-05-10T16:10:27.233Z,21.77
2023-05-10T16:12:57.015Z,21.73
2023-05-10T16:15:23.676Z,21.73
2023-05-10T16:17:50.578Z,21.77
2023-05-10T16:20:17.553Z,21.82
2023-05-10T16:22:44.523Z,21.87
2023-05-10T16:25:13.360Z,21.90
2023-05-10T16:27:40.485Z,21.86
2023-05-10T16:30:07.736Z,21.80
2023-05-10T16:32:35.193Z,21.65
2023-05-10T16:35:03.474Z,21.58
2023-05-10T16:37:30.177Z,21.55
2023-05-10T16:39:56.907Z,21.54
2023-05-10T16:42:24.245Z,21.48
2023-05-10T16:44:50.964Z,21.42
2023-05-10T16:47:17.745Z,21.47
2023-05-10T16:49:44.462Z,21.44
2023-05-10T16:52:11.202Z,21.37
2023-05-10T16:54:37.845Z,21.28
2023-05-10T16:57:04.490Z,21.26
2023-05-10T16:59:31.132Z,21.23
2023-05-10T17:01:57.924Z,21.20
2023-05-10T17:04:24.848Z,21.09
2023-05-10T17:06:51.871Z,21.06
2023-05-10T17:09:20.352Z,20.91
2023-05-10T17:11:47.377Z,20.80
2023-05-10T17:14:14.108Z,20.75
2023-05-10T17:16:41.968Z,20.58
2023-05-10T17:19:09.645Z,20.31
2023-05-10T17:21:36.775Z,20.02
2023-05-10T17:24:03.481Z,19.85
2023-05-10T17:26:30.296Z,19.74
2023-05-10T17:28:57.077Z,19.69
2023-05-10T17:31:23.798Z,19.48
2023-05-10T17:33:50.446Z,19.24
2023-05-10T17:36:17.237Z,19.20
2023-05-10T17:38:44.384Z,19.20
2023-05-10T17:41:11.116Z,19.19
2023-05-10T17:43:37.813Z,19.24
2023-05-10T17:46:04.614Z,19.41
2023-05-10T17:48:31.447Z,19.54
2023-05-10T17:50:58.168Z,19.57
2023-05-10T17:53:25.163Z,19.65
2023-05-10T17:55:52.172Z,19.67
2023-05-10T17:58:18.838Z,19.58
2023-05-10T18:00:46.414Z,19.42
2023-05-10T18:03:13.193Z,19.28
2023-05-10T18:05:39.929Z,19.06
2023-05-10T18:08:07.580Z,18.76
2023-05-10T18:10:34.478Z,18.53
2023-05-10T18:13:02.581Z,18.37
2023-05-10T18:15:29.285Z,18.11
2023-05-10T18:17:56.935Z,17.81
2023-05-10T18:20:24.197Z,17.58
2023-05-10T18:22:50.842Z,17.45
2023-05-10T18:25:17.919Z,17.29
2023-05-10T18:27:44.729Z,17.13
2023-05-10T18:30:12.602Z,16.93
2023-05-10T18:32:39.817Z,16.77
2023-05-10T18:35:08.202Z,16.72
2023-05-10T18:37:36.332Z,16.67
2023-05-10T18:40:05.036Z,16.50
2023-05-10T18:42:32.041Z,16.38
2023-05-10T18:44:58.761Z,16.27
2023-05-10T18:47:26.820Z,16.17
2023-05-10T18:49:53.564Z,16.06
2023-05-10T18:52:20.206Z,16.01
2023-05-10T18:54:47.034Z,15.95
2023-05-10T18:57:13.962Z,15.83
2023-05-10T18:59:41.784Z,15.76
2023-05-10T19:02:08.658Z,15.65
2023-05-10T19:04:35.523Z,15.55
2023-05-10T19:07:03.174Z,15.48
2023-05-10T19:09:29.970Z,15.41
2023-05-10T19:11:56.869Z,15.33
2023-05-10T19:14:24.971Z,15.32
2023-05-10T19:16:53.669Z,15.29
2023-05-10T19:19:21.474Z,15.26
2023-05-10T19:21:49.066Z,15.27
2023-05-10T19:24:15.824Z,15.25
2023-05-10T19:26:42.765Z,15.17
2023-05-10T19:29:09.504Z,15.13
2023-05-10T19:31:36.325Z,15.13
2023-05-10T19:34:03.683Z,15.07
2023-05-10T19:36:31.198Z,15.02
2023-05-10T19:38:57.953Z,14.94
2023-05-10T19:41:24.680Z,14.87
2023-05-10T19:43:51.474Z,14.81
2023-05-10T19:46:20.114Z,14.73
2023-05-10T19:48:47.021Z,14.65
2023-05-10T19:51:14.053Z,14.58
2023-05-10T19:53:44.237Z,14.45
2023-05-10T19:56:11.292Z,14.26
2023-05-10T19:58:37.991Z,14.08
2023-05-10T20:01:07.682Z,13.98
2023-05-10T20:03:35.958Z,13.89
2023-05-10T20:06:04.059Z,13.81
2023-05-10T20:08:31.379Z,13.75
2023-05-10T20:10:59.226Z,13.70
2023-05-10T20:13:26.241Z,13.66
2023-05-10T20:15:59.662Z,13.63
2023-05-10T20:18:27.110Z,13.63
2023-05-10T20:20:58.881Z,13.59
2023-05-10T20:23:25.790Z,13.53
2023-05-10T20:25:52.888Z,13.46
2023-05-10T20:28:25.328Z,13.39
2023-05-10T20:30:53.826Z,13.34
2023-05-10T20:33:21.535Z,13.28
2023-05-10T20:35:48.393Z,13.22
2023-05-10T20:38:15.061Z,13.14
2023-05-10T20:40:42.018Z,13.10
2023-05-10T20:43:08.756Z,13.01
2023-05-10T20:45:37.561Z,12.94
2023-05-10T20:48:05.092Z,12.88
2023-05-10T20:50:31.818Z,12.79
2023-05-10T20:52:58.513Z,12.74
2023-05-10T20:55:25.253Z,12.68
2023-05-10T20:57:52.897Z,12.64
2023-05-10T21:00:20.276Z,12.62
2023-05-10T21:02:47.124Z,12.60
2023-05-10T21:05:14.030Z,12.54
2023-05-10T21:07:40.899Z,12.51
2023-05-10T21:10:08.424Z,12.46
2023-05-10T21:12:35.078Z,12.43
2023-05-10T21:15:01.837Z,12.39
2023-05-10T21:17:28.585Z,12.35
2023-05-10T21:19:55.426Z,12.27
2023-05-10T21:22:22.081Z,12.20
2023-05-10T21:24:48.738Z,12.16
2023-05-10T21:27:15.432Z,12.11
2023-05-10T21:29:42.216Z,12.05
2023-05-10T21:32:09.700Z,12.01
2023-05-10T21:34:36.611Z,11.96
2023-05-10T21:37:03.316Z,11.94
2023-05-10T21:39:30.031Z,11.91
2023-05-10T21:41:57.048Z,11.89
2023-05-10T21:44:24.579Z,11.78
2023-05-10T21:46:51.324Z,11.70
2023-05-10T21:49:17.989Z,11.63
2023-05-10T21:51:44.713Z,11.59
2023-05-10T21:54:11.472Z,11.58
2023-05-10T21:56:38.177Z,11.52
2023-05-10T21:59:05.145Z,11.46
2023-05-10T22:01:31.813Z,11.39
2023-05-10T22:03:58.460Z,11.36
2023-05-10T22:06:25.079Z,11.31
2023-05-10T22:08:51.703Z,11.28
2023-05-10T22:11:18.313Z,11.23
2023-05-10T22:13:44.940Z,11.19
2023-05-10T22:16:11.524Z,11.12
2023-05-10T22:18:38.208Z,11.09
2023-05-10T22:21:05.039Z,11.06
2023-05-10T22:23:31.710Z,11.03
2023-05-10T22:26:02.650Z,11.03
2023-05-10T22:28:29.680Z,11.00
2023-05-10T22:30:56.310Z,10.98
2023-05-10T22:33:23.020Z,10.97
2023-05-10T22:35:49.611Z,10.96
2023-05-10T22:38:16.300Z,10.90
2023-05-10T22:40:43.032Z,10.82
2023-05-10T22:43:09.632Z,10.72
2023-05-10T22:45:36.351Z,10.68
2023-05-10T22:48:05.222Z,10.70
2023-05-10T22:50:32.259Z,10.72
2023-05-10T22:52:58.902Z,10.64
2023-05-10T22:55:25.718Z,10.56
2023-05-10T22:57:52.595Z,10.49
2023-05-10T23:00:19.975Z,10.46
2023-05-10T23:02:46.863Z,10.43
2023-05-10T23:05:13.758Z,10.40
2023-05-10T23:07:40.597Z,10.34
2023-05-10T23:10:07.672Z,10.28
2023-05-10T23:12:34.722Z,10.26
2023-05-10T23:15:01.548Z,10.21
2023-05-10T23:17:28.226Z,10.19
2023-05-10T23:19:54.850Z,10.14
2023-05-10T23:22:21.531Z,10.10
2023-05-10T23:24:48.186Z,10.04
2023-05-10T23:27:14.787Z,10.00
2023-05-10T23:29:41.798Z,9.96
2023-05-10T23:32:08.444Z,9.89
2023-05-10T23:34:35.162Z,9.84
2023-05-10T23:37:02.381Z,9.81
2023-05-10T23:39:29.026Z,9.78
2023-05-10T23:41:55.645Z,9.77
2023-05-10T23:44:22.502Z,9.75
2023-05-10T23:46:49.199Z,9.73
2023-05-10T23:49:15.808Z,9.67
2023-05-10T23:51:42.407Z,9.62
2023-05-10T23:54:09.045Z,9.58
2023-05-10T23:56:36.092Z,9.55
2023-05-10T23:59:02.692Z,9.48
